Terminal Aerodrome Forecast
Issued by NWS Charleston, WV

Current Version | Previous Version | Graphics & Text | Print | Product List | Glossary On
Versions: 1 2 3 4 5 6 7 8 9 10 11 12 13 14 15 16
000
FTUS41 KRLX 251700 RRA
TAFPKB
TAF
KPKB 251745Z 2518/2618 25010G17KT P6SM OVC025
     FM252300 23007KT P6SM BKN035
     FM260100 22004KT P6SM SCT035
     FM260400 18002KT P6SM SKC
     FM261400 24005KT P6SM SKC=

USA.gov is the U.S. government's official web portal to all federal, state and local government web resources and services.